createdAt,value
2023-01-20T00:01:46.622Z,99862.44
2023-01-20T00:04:15.446Z,99862.72
2023-01-20T00:06:43.125Z,99869.97
2023-01-20T00:09:15.379Z,99872.41
2023-01-20T00:11:44.682Z,99882.62
2023-01-20T00:14:12.700Z,99877.16
2023-01-20T00:16:40.380Z,99874.94
2023-01-20T00:19:09.486Z,99872.47
2023-01-20T00:21:37.145Z,99873.81
2023-01-20T00:24:05.198Z,99872.13
2023-01-20T00:26:33.205Z,99875.03
2023-01-20T00:29:00.887Z,99878.50
2023-01-20T00:31:30.499Z,99881.00
2023-01-20T00:33:59.883Z,99878.09
2023-01-20T00:36:31.338Z,99881.53
2023-01-20T00:39:00.611Z,99872.06
2023-01-20T00:41:28.172Z,99861.28
2023-01-20T00:43:55.838Z,99851.41
2023-01-20T00:46:23.967Z,99859.59
2023-01-20T00:48:51.568Z,99860.88
2023-01-20T00:51:19.555Z,99864.91
2023-01-20T00:53:47.539Z,99861.47
2023-01-20T00:56:15.174Z,99865.38
2023-01-20T00:58:44.426Z,99873.56
2023-01-20T01:01:12.957Z,99872.22
2023-01-20T01:03:40.896Z,99875.59
2023-01-20T01:06:12.161Z,99875.84
2023-01-20T01:08:41.416Z,99886.28
2023-01-20T01:11:10.531Z,99883.94
2023-01-20T01:13:40.950Z,99889.88
2023-01-20T01:16:13.204Z,99879.75
2023-01-20T01:18:41.971Z,99874.97
2023-01-20T01:21:12.331Z,99865.22
2023-01-20T01:23:40.011Z,99859.94
2023-01-20T01:26:08.166Z,99857.50
2023-01-20T01:28:36.579Z,99858.47
2023-01-20T01:31:06.403Z,99853.22
2023-01-20T01:33:34.735Z,99862.38
2023-01-20T01:36:03.836Z,99863.47
2023-01-20T01:38:31.810Z,99870.06
2023-01-20T01:40:59.863Z,99867.75
2023-01-20T01:43:34.226Z,99874.13
2023-01-20T01:46:02.118Z,99866.41
2023-01-20T01:48:33.762Z,99862.72
2023-01-20T01:51:05.168Z,99857.84
2023-01-20T01:53:40.275Z,99858.56
2023-01-20T01:56:08.924Z,99867.38
2023-01-20T01:58:40.843Z,99866.03
2023-01-20T02:01:08.850Z,99864.34
2023-01-20T02:04:06.071Z,99858.88
2023-01-20T02:06:38.483Z,99857.38
2023-01-20T02:09:06.719Z,99849.37
2023-01-20T02:11:43.904Z,99853.03
2023-01-20T02:14:12.072Z,99842.31
2023-01-20T02:16:58.063Z,99843.63
2023-01-20T02:19:53.435Z,99848.09
2023-01-20T02:22:48.636Z,99837.81
2023-01-20T02:25:34.367Z,99835.53
2023-01-20T02:28:27.159Z,99837.28
2023-01-20T02:31:25.667Z,99837.47
2023-01-20T02:34:03.455Z,99826.06
2023-01-20T02:36:37.888Z,99822.59
2023-01-20T02:39:10.937Z,99821.69
2023-01-20T02:42:12.808Z,99803.09
2023-01-20T02:44:52.458Z,99798.38
2023-01-20T02:47:32.243Z,99790.72
2023-01-20T02:50:19.233Z,99790.66
2023-01-20T02:52:53.245Z,99789.06
2023-01-20T02:55:48.765Z,99775.16
2023-01-20T02:58:56.832Z,99768.75
2023-01-20T03:01:34.182Z,99769.06
2023-01-20T03:04:04.675Z,99766.81
2023-01-20T03:06:37.211Z,99770.16
2023-01-20T03:09:13.300Z,99773.03
2023-01-20T03:11:45.834Z,99774.28
2023-01-20T03:14:15.056Z,99773.69
2023-01-20T03:16:43.769Z,99778.84
2023-01-20T03:19:11.859Z,99778.63
2023-01-20T03:21:39.546Z,99777.28
2023-01-20T03:24:08.011Z,99782.28
2023-01-20T03:26:35.778Z,99781.41
2023-01-20T03:29:06.924Z,99784.75
2023-01-20T03:31:44.127Z,99788.94
2023-01-20T03:34:15.989Z,99790.56
2023-01-20T03:36:45.271Z,99782.56
2023-01-20T03:39:13.606Z,99792.12
2023-01-20T03:42:07.325Z,99794.38
2023-01-20T03:44:38.208Z,99792.63
2023-01-20T03:47:30.624Z,99794.50
2023-01-20T03:50:17.611Z,99803.66
2023-01-20T03:52:53.040Z,99798.66
2023-01-20T03:55:26.587Z,99787.28
2023-01-20T03:58:11.734Z,99790.38
2023-01-20T04:00:45.368Z,99789.94
2023-01-20T04:03:20.248Z,99791.44
2023-01-20T04:05:49.683Z,99792.16
2023-01-20T04:08:22.211Z,99789.56
2023-01-20T04:10:51.570Z,99794.19
2023-01-20T04:13:19.552Z,99794.25
2023-01-20T04:15:47.430Z,99800.19
2023-01-20T04:18:15.980Z,99802.22
2023-01-20T04:20:46.371Z,99801.59
2023-01-20T04:23:42.493Z,99796.03
2023-01-20T04:26:10.401Z,99790.72
2023-01-20T04:28:38.065Z,99783.81
2023-01-20T04:31:05.975Z,99785.44
2023-01-20T04:33:37.386Z,99779.44
2023-01-20T04:36:05.276Z,99782.16
2023-01-20T04:38:33.298Z,99777.56
2023-01-20T04:41:03.563Z,99767.09
2023-01-20T04:43:31.382Z,99764.50
2023-01-20T04:45:59.047Z,99778.53
2023-01-20T04:48:27.486Z,99781.38
2023-01-20T04:50:55.126Z,99780.87
2023-01-20T04:53:22.782Z,99771.16
2023-01-20T04:55:50.727Z,99766.09
2023-01-20T04:58:18.690Z,99760.75
2023-01-20T05:00:46.342Z,99762.72
2023-01-20T05:03:14.319Z,99758.78
2023-01-20T05:05:41.920Z,99763.03
2023-01-20T05:08:09.680Z,99762.31
2023-01-20T05:10:37.629Z,99755.97
2023-01-20T05:13:05.455Z,99743.75
2023-01-20T05:15:33.139Z,99738.50
2023-01-20T05:18:01.311Z,99735.59
2023-01-20T05:20:29.906Z,99740.75
2023-01-20T05:23:01.109Z,99744.53
2023-01-20T05:25:29.250Z,99745.34
2023-01-20T05:27:58.138Z,99751.59
2023-01-20T05:30:25.854Z,99758.88
2023-01-20T05:32:53.885Z,99762.47
2023-01-20T05:35:21.532Z,99766.91
2023-01-20T05:37:54.132Z,99764.37
2023-01-20T05:40:22.787Z,99778.22
2023-01-20T05:42:50.446Z,99772.53
2023-01-20T05:45:18.057Z,99767.38
2023-01-20T05:47:46.070Z,99754.75
2023-01-20T05:50:13.745Z,99755.75
2023-01-20T05:52:41.305Z,99754.50
2023-01-20T05:55:09.694Z,99750.28
2023-01-20T05:57:37.305Z,99748.63
2023-01-20T06:00:08.702Z,99745.00
2023-01-20T06:02:36.927Z,99754.38
2023-01-20T06:05:05.657Z,99753.81
2023-01-20T06:07:33.334Z,99743.72
2023-01-20T06:10:02.561Z,99749.37
2023-01-20T06:12:30.278Z,99740.09
2023-01-20T06:14:57.872Z,99733.19
2023-01-20T06:17:25.716Z,99767.34
2023-01-20T06:19:53.525Z,99772.81
2023-01-20T06:22:21.552Z,99768.78
2023-01-20T06:24:49.530Z,99753.09
2023-01-20T06:27:17.124Z,99768.84
2023-01-20T06:29:44.763Z,99777.06
2023-01-20T06:32:13.245Z,99761.50
2023-01-20T06:34:40.908Z,99741.78
2023-01-20T06:37:08.618Z,99729.69
2023-01-20T06:39:37.697Z,99724.88
2023-01-20T06:42:05.461Z,99714.16
2023-01-20T06:44:34.160Z,99699.31
2023-01-20T06:47:02.308Z,99694.91
2023-01-20T06:49:30.265Z,99705.44
2023-01-20T06:51:57.912Z,99716.16
2023-01-20T06:54:27.197Z,99704.34
2023-01-20T06:56:54.928Z,99697.97
2023-01-20T06:59:22.902Z,99687.78
2023-01-20T07:01:50.917Z,99700.81
2023-01-20T07:04:21.328Z,99698.09
2023-01-20T07:06:48.939Z,99708.72
2023-01-20T07:09:16.910Z,99713.38
2023-01-20T07:11:44.579Z,99709.97
2023-01-20T07:14:12.294Z,99719.50
2023-01-20T07:16:40.561Z,99702.47
2023-01-20T07:19:08.289Z,99695.16
2023-01-20T07:21:36.457Z,99690.06
2023-01-20T07:24:05.240Z,99692.78
2023-01-20T07:26:32.960Z,99686.63
2023-01-20T07:29:00.807Z,99695.63
2023-01-20T07:31:31.597Z,99694.78
2023-01-20T07:34:00.168Z,99695.31
2023-01-20T07:36:28.324Z,99695.38
2023-01-20T07:38:55.961Z,99684.66
2023-01-20T07:41:23.844Z,99681.37
2023-01-20T07:43:53.051Z,99677.97
2023-01-20T07:46:21.077Z,99673.50
2023-01-20T07:48:48.770Z,99668.47
2023-01-20T07:51:17.268Z,99673.28
2023-01-20T07:53:47.665Z,99671.50
2023-01-20T07:56:27.586Z,99677.84
2023-01-20T07:58:56.167Z,99683.31
2023-01-20T08:01:32.780Z,99690.72
2023-01-20T08:04:00.992Z,99677.56
2023-01-20T08:06:31.484Z,99678.09
2023-01-20T08:09:03.327Z,99683.91
2023-01-20T08:11:34.508Z,99681.19
2023-01-20T08:14:02.099Z,99677.84
2023-01-20T08:16:29.779Z,99690.16
2023-01-20T08:18:57.801Z,99686.09
2023-01-20T08:21:27.920Z,99688.00
2023-01-20T08:23:56.876Z,99700.88
2023-01-20T08:26:25.461Z,99693.12
2023-01-20T08:28:54.385Z,99700.31
2023-01-20T08:31:24.339Z,99685.06
2023-01-20T08:33:54.849Z,99670.91
2023-01-20T08:36:26.164Z,99660.91
2023-01-20T08:38:56.683Z,99659.34
2023-01-20T08:41:33.386Z,99658.69
2023-01-20T08:44:04.556Z,99653.53
2023-01-20T08:46:32.309Z,99661.16
2023-01-20T08:49:00.001Z,99657.72
2023-01-20T08:51:32.344Z,99657.87
2023-01-20T08:54:01.037Z,99664.16
2023-01-20T08:56:30.107Z,99671.75
2023-01-20T08:58:59.145Z,99667.09
2023-01-20T09:01:29.528Z,99659.16
2023-01-20T09:04:05.916Z,99652.03
2023-01-20T09:06:44.950Z,99654.78
2023-01-20T09:09:15.092Z,99652.34
2023-01-20T09:11:45.012Z,99649.06
2023-01-20T09:14:13.189Z,99648.28
2023-01-20T09:16:40.768Z,99640.59
2023-01-20T09:19:08.419Z,99644.56
2023-01-20T09:21:36.464Z,99636.75
2023-01-20T09:24:04.835Z,99641.25
2023-01-20T09:26:38.596Z,99643.81
2023-01-20T09:29:15.074Z,99634.50
2023-01-20T09:31:58.307Z,99632.97
2023-01-20T09:34:29.466Z,99646.94
2023-01-20T09:37:19.833Z,99637.78
2023-01-20T09:40:06.785Z,99645.97
2023-01-20T09:43:24.945Z,99637.19
2023-01-20T09:46:11.782Z,99635.06
2023-01-20T09:49:27.126Z,99632.22
2023-01-20T09:52:19.658Z,99617.34
2023-01-20T09:54:54.236Z,99609.06
2023-01-20T09:57:26.038Z,99613.63
2023-01-20T10:00:01.826Z,99611.87
2023-01-20T10:02:35.279Z,99612.56
2023-01-20T10:05:17.000Z,99601.56
2023-01-20T10:07:52.440Z,99601.91
2023-01-20T10:10:40.011Z,99604.63
2023-01-20T10:13:23.271Z,99602.72
2023-01-20T10:15:55.254Z,99605.41
2023-01-20T10:18:32.206Z,99599.78
2023-01-20T10:21:07.097Z,99596.53
2023-01-20T10:23:43.553Z,99591.81
2023-01-20T10:26:21.469Z,99583.31
2023-01-20T10:29:04.084Z,99585.41
2023-01-20T10:31:37.994Z,99577.50
2023-01-20T10:34:15.940Z,99566.59
2023-01-20T10:36:48.205Z,99565.75
2023-01-20T10:39:37.304Z,99565.28
2023-01-20T10:42:11.284Z,99557.72
2023-01-20T10:44:39.372Z,99555.88
2023-01-20T10:47:41.285Z,99545.03
2023-01-20T10:50:18.520Z,99546.13
2023-01-20T10:53:08.150Z,99544.66
2023-01-20T10:55:54.368Z,99561.66
2023-01-20T10:58:33.113Z,99555.66
2023-01-20T11:01:05.571Z,99550.94
2023-01-20T11:03:39.705Z,99540.00
2023-01-20T11:06:10.801Z,99527.91
2023-01-20T11:08:39.107Z,99521.75
2023-01-20T11:11:13.805Z,99519.28
2023-01-20T11:13:41.830Z,99518.94
2023-01-20T11:16:24.909Z,99515.88
2023-01-20T11:19:01.385Z,99504.94
2023-01-20T11:21:33.516Z,99500.25
2023-01-20T11:24:01.570Z,99507.06
2023-01-20T11:26:34.723Z,99509.56
2023-01-20T11:29:11.541Z,99505.56
2023-01-20T11:31:45.113Z,99506.53
2023-01-20T11:34:26.679Z,99494.62
2023-01-20T11:37:06.567Z,99498.66
2023-01-20T11:39:37.528Z,99497.22
2023-01-20T11:42:22.704Z,99495.12
2023-01-20T11:45:15.322Z,99493.69
2023-01-20T11:48:00.803Z,99489.84
2023-01-20T11:50:37.680Z,99485.53
2023-01-20T11:53:21.152Z,99484.78
2023-01-20T11:56:02.215Z,99492.06
2023-01-20T11:58:48.297Z,99489.69
2023-01-20T12:01:54.765Z,99491.97
2023-01-20T12:04:38.016Z,99479.47
2023-01-20T12:07:10.966Z,99479.56
2023-01-20T12:09:44.498Z,99469.94
2023-01-20T12:12:33.903Z,99466.78
2023-01-20T12:15:18.360Z,99466.06
2023-01-20T12:17:49.057Z,99476.34
2023-01-20T12:20:49.216Z,99472.94
2023-01-20T12:23:49.044Z,99471.66
2023-01-20T12:26:20.015Z,99470.25
2023-01-20T12:29:17.266Z,99462.25
2023-01-20T12:31:49.105Z,99453.94
2023-01-20T12:34:24.233Z,99450.69
2023-01-20T12:36:55.349Z,99456.94
2023-01-20T12:39:34.793Z,99451.59
2023-01-20T12:42:23.244Z,99444.34
2023-01-20T12:44:58.176Z,99445.03
2023-01-20T12:47:46.514Z,99447.75
2023-01-20T12:50:45.957Z,99440.41
2023-01-20T12:53:38.978Z,99439.94
2023-01-20T12:56:40.552Z,99443.56
2023-01-20T12:59:17.301Z,99441.44
2023-01-20T13:01:48.018Z,99432.75
2023-01-20T13:04:30.519Z,99430.78
2023-01-20T13:07:31.734Z,99429.94
2023-01-20T13:10:17.128Z,99434.53
2023-01-20T13:13:03.172Z,99434.19
2023-01-20T13:15:41.344Z,99428.72
2023-01-20T13:18:33.601Z,99434.25
2023-01-20T13:21:01.524Z,99434.81
2023-01-20T13:23:34.578Z,99439.59
2023-01-20T13:26:05.097Z,99438.59
2023-01-20T13:28:33.252Z,99440.50
2023-01-20T13:31:02.376Z,99454.19
2023-01-20T13:33:39.299Z,99448.47
2023-01-20T13:36:16.046Z,99444.16
2023-01-20T13:38:49.057Z,99430.78
2023-01-20T13:41:49.828Z,99433.00
2023-01-20T13:44:36.994Z,99433.47
2023-01-20T13:47:09.751Z,99431.94
2023-01-20T13:49:55.672Z,99425.75
2023-01-20T13:52:51.101Z,99417.25
2023-01-20T13:55:51.465Z,99424.59
2023-01-20T13:58:27.788Z,99413.56
2023-01-20T14:00:57.361Z,99417.38
2023-01-20T14:03:29.412Z,99405.59
2023-01-20T14:06:01.766Z,99416.56
2023-01-20T14:08:42.403Z,99418.34
2023-01-20T14:11:17.880Z,99410.31
2023-01-20T14:13:56.166Z,99406.78
2023-01-20T14:16:33.973Z,99414.06
2023-01-20T14:19:19.943Z,99406.63
2023-01-20T14:21:53.243Z,99408.75
2023-01-20T14:24:44.255Z,99400.31
2023-01-20T14:27:17.854Z,99392.16
2023-01-20T14:29:47.973Z,99403.56
2023-01-20T14:32:31.922Z,99406.09
2023-01-20T14:35:01.384Z,99395.00
2023-01-20T14:37:33.267Z,99402.53
2023-01-20T14:40:08.353Z,99409.94
2023-01-20T14:42:38.631Z,99399.84
2023-01-20T14:45:18.470Z,99403.22
2023-01-20T14:47:46.575Z,99409.88
2023-01-20T14:50:17.465Z,99407.16
2023-01-20T14:52:48.973Z,99405.09
2023-01-20T14:55:35.700Z,99406.50
2023-01-20T14:58:17.267Z,99415.41
2023-01-20T15:00:50.275Z,99422.34
2023-01-20T15:03:24.950Z,99428.69
2023-01-20T15:05:58.244Z,99426.50
2023-01-20T15:08:32.987Z,99427.34
2023-01-20T15:11:12.753Z,99431.78
2023-01-20T15:14:00.957Z,99421.91
2023-01-20T15:16:46.697Z,99424.78
2023-01-20T15:19:17.533Z,99435.28
2023-01-20T15:21:50.796Z,99434.50
2023-01-20T15:24:21.409Z,99427.59
2023-01-20T15:26:54.060Z,99437.22
2023-01-20T15:29:28.817Z,99441.88
2023-01-20T15:31:58.983Z,99424.56
2023-01-20T15:34:27.992Z,99429.47
2023-01-20T15:36:56.602Z,99430.13
2023-01-20T15:39:30.270Z,99436.69
2023-01-20T15:41:58.567Z,99436.78
2023-01-20T15:44:28.846Z,99444.09
2023-01-20T15:46:57.654Z,99442.84
2023-01-20T15:49:25.844Z,99449.06
2023-01-20T15:51:53.773Z,99453.97
2023-01-20T15:54:21.527Z,99469.63
2023-01-20T15:56:49.982Z,99465.28
2023-01-20T15:59:22.724Z,99471.00
2023-01-20T16:01:51.514Z,99461.34
2023-01-20T16:04:20.577Z,99468.50
2023-01-20T16:06:48.169Z,99473.50
2023-01-20T16:09:25.932Z,99469.53
2023-01-20T16:11:54.516Z,99475.59
2023-01-20T16:14:22.250Z,99469.44
2023-01-20T16:16:49.852Z,99469.47
2023-01-20T16:19:17.835Z,99461.81
2023-01-20T16:21:45.892Z,99457.66
2023-01-20T16:24:13.576Z,99460.53
2023-01-20T16:26:44.775Z,99468.37
2023-01-20T16:29:12.703Z,99469.81
2023-01-20T16:31:40.574Z,99472.94
2023-01-20T16:34:08.616Z,99475.41
2023-01-20T16:36:36.295Z,99477.47
2023-01-20T16:39:04.008Z,99475.87
2023-01-20T16:41:31.957Z,99481.16
2023-01-20T16:44:00.620Z,99489.56
2023-01-20T16:46:30.256Z,99499.88
2023-01-20T16:49:01.450Z,99498.09
2023-01-20T16:51:30.611Z,99512.06
2023-01-20T16:53:59.009Z,99517.84
2023-01-20T16:56:29.126Z,99518.16
2023-01-20T16:59:01.509Z,99518.53
2023-01-20T17:01:30.653Z,99519.19
2023-01-20T17:04:00.774Z,99529.63
2023-01-20T17:06:34.092Z,99522.03
2023-01-20T17:09:04.898Z,99515.53
2023-01-20T17:11:35.596Z,99527.16
2023-01-20T17:14:05.906Z,99528.28
2023-01-20T17:16:34.016Z,99530.59
2023-01-20T17:19:02.250Z,99543.84
2023-01-20T17:21:33.236Z,99544.25
2023-01-20T17:24:03.557Z,99544.97
2023-01-20T17:26:32.406Z,99563.94
2023-01-20T17:29:02.881Z,99576.53
2023-01-20T17:31:34.459Z,99574.87
2023-01-20T17:34:06.121Z,99589.25
2023-01-20T17:36:34.792Z,99584.69
2023-01-20T17:39:04.378Z,99586.31
2023-01-20T17:41:33.098Z,99589.34
2023-01-20T17:44:01.445Z,99591.34
2023-01-20T17:46:30.338Z,99585.31
2023-01-20T17:49:01.834Z,99596.63
2023-01-20T17:51:31.040Z,99593.09
2023-01-20T17:54:01.158Z,99596.16
2023-01-20T17:56:30.502Z,99596.44
2023-01-20T17:58:58.289Z,99597.87
2023-01-20T18:01:32.574Z,99599.19
2023-01-20T18:04:04.294Z,99606.19
2023-01-20T18:06:35.140Z,99614.00
2023-01-20T18:09:08.476Z,99608.78
2023-01-20T18:11:37.378Z,99614.59
2023-01-20T18:14:06.314Z,99619.37
2023-01-20T18:16:37.005Z,99610.47
2023-01-20T18:19:05.166Z,99608.72
2023-01-20T18:21:37.434Z,99613.69
2023-01-20T18:24:10.189Z,99602.63
2023-01-20T18:26:39.716Z,99601.56
2023-01-20T18:29:12.660Z,99601.91
2023-01-20T18:31:41.007Z,99600.47
2023-01-20T18:34:12.037Z,99604.56
2023-01-20T18:36:41.901Z,99604.37
2023-01-20T18:39:18.513Z,99618.34
2023-01-20T18:41:47.218Z,99620.50
2023-01-20T18:44:17.730Z,99620.41
2023-01-20T18:46:45.830Z,99619.47
2023-01-20T18:49:17.346Z,99618.28
2023-01-20T18:51:46.013Z,99613.69
2023-01-20T18:54:17.571Z,99620.50
2023-01-20T18:56:45.791Z,99624.34
2023-01-20T18:59:15.123Z,99625.09
2023-01-20T19:01:44.540Z,99622.31
2023-01-20T19:04:13.622Z,99632.91
2023-01-20T19:06:43.733Z,99635.44
2023-01-20T19:09:12.607Z,99637.31
2023-01-20T19:11:41.913Z,99637.16
2023-01-20T19:14:14.977Z,99642.25
2023-01-20T19:16:48.930Z,99644.69
2023-01-20T19:19:20.254Z,99642.84
2023-01-20T19:21:52.553Z,99649.59
2023-01-20T19:24:21.862Z,99655.94
2023-01-20T19:26:50.090Z,99660.47
2023-01-20T19:29:18.849Z,99665.69
2023-01-20T19:31:46.860Z,99671.38
2023-01-20T19:34:15.251Z,99671.91
2023-01-20T19:36:43.079Z,99682.72
2023-01-20T19:39:11.111Z,99676.16
2023-01-20T19:41:39.694Z,99676.28
2023-01-20T19:44:08.172Z,99683.25
2023-01-20T19:46:38.982Z,99686.97
2023-01-20T19:49:07.490Z,99689.75
2023-01-20T19:51:36.525Z,99703.34
2023-01-20T19:54:05.741Z,99704.69
2023-01-20T19:56:35.584Z,99703.97
2023-01-20T19:59:06.044Z,99705.34
2023-01-20T20:01:36.143Z,99708.50
2023-01-20T20:04:07.351Z,99707.94
2023-01-20T20:06:40.511Z,99709.34
2023-01-20T20:09:15.741Z,99705.31
2023-01-20T20:11:44.048Z,99701.59
2023-01-20T20:14:14.572Z,99704.88
2023-01-20T20:16:42.216Z,99711.31
2023-01-20T20:19:14.111Z,99722.66
2023-01-20T20:21:43.486Z,99725.19
2023-01-20T20:24:12.940Z,99722.44
2023-01-20T20:26:41.191Z,99729.06
2023-01-20T20:29:10.739Z,99726.59
2023-01-20T20:31:40.353Z,99718.84
2023-01-20T20:34:12.370Z,99728.34
2023-01-20T20:36:40.671Z,99724.97
2023-01-20T20:39:09.187Z,99726.84
2023-01-20T20:41:37.364Z,99723.50
2023-01-20T20:44:05.602Z,99717.75
2023-01-20T20:46:34.359Z,99720.78
2023-01-20T20:49:02.312Z,99721.97
2023-01-20T20:51:32.663Z,99724.25
2023-01-20T20:54:02.597Z,99713.56
2023-01-20T20:56:31.857Z,99717.50
2023-01-20T20:59:03.182Z,99717.44
2023-01-20T21:01:34.085Z,99731.75
2023-01-20T21:04:03.375Z,99731.53
2023-01-20T21:06:32.928Z,99731.16
2023-01-20T21:09:01.168Z,99743.25
2023-01-20T21:11:30.300Z,99749.41
2023-01-20T21:13:58.733Z,99758.75
2023-01-20T21:16:27.604Z,99758.19
2023-01-20T21:18:56.626Z,99761.75
2023-01-20T21:21:25.699Z,99761.12
2023-01-20T21:23:55.729Z,99759.38
2023-01-20T21:26:28.953Z,99765.53
2023-01-20T21:29:02.054Z,99771.75
2023-01-20T21:31:31.550Z,99776.53
2023-01-20T21:34:00.622Z,99782.47
2023-01-20T21:36:30.030Z,99791.59
2023-01-20T21:38:59.305Z,99792.63
2023-01-20T21:41:27.430Z,99782.81
2023-01-20T21:44:13.753Z,99784.28
2023-01-20T21:46:41.952Z,99790.88
2023-01-20T21:49:28.570Z,99802.53
2023-01-20T21:52:15.989Z,99795.91
2023-01-20T21:54:45.274Z,99810.87
2023-01-20T21:57:14.551Z,99808.97
2023-01-20T21:59:43.178Z,99814.34
2023-01-20T22:02:13.463Z,99821.00
2023-01-20T22:04:41.848Z,99830.34
2023-01-20T22:07:10.512Z,99838.06
2023-01-20T22:09:39.156Z,99827.84
2023-01-20T22:12:08.041Z,99827.88
2023-01-20T22:14:36.072Z,99834.25
2023-01-20T22:17:04.485Z,99835.63
2023-01-20T22:19:32.807Z,99843.06
2023-01-20T22:22:01.336Z,99842.84
2023-01-20T22:24:29.752Z,99844.53
2023-01-20T22:26:57.955Z,99847.72
2023-01-20T22:29:25.923Z,99846.34
2023-01-20T22:31:54.918Z,99846.66
2023-01-20T22:34:23.361Z,99856.53
2023-01-20T22:36:50.998Z,99862.03
2023-01-20T22:39:18.596Z,99858.75
2023-01-20T22:41:46.486Z,99868.78
2023-01-20T22:44:14.195Z,99871.75
2023-01-20T22:46:41.844Z,99864.22
2023-01-20T22:49:11.245Z,99877.84
2023-01-20T22:51:38.985Z,99879.19
2023-01-20T22:54:07.563Z,99882.22
2023-01-20T22:56:35.568Z,99881.63
2023-01-20T22:59:03.238Z,99884.09
2023-01-20T23:01:33.430Z,99874.56
2023-01-20T23:04:06.005Z,99877.59
2023-01-20T23:06:36.120Z,99886.44
2023-01-20T23:09:07.985Z,99888.66
2023-01-20T23:11:38.165Z,99898.28
2023-01-20T23:14:06.870Z,99900.25
2023-01-20T23:16:34.473Z,99904.00
2023-01-20T23:19:02.285Z,99901.03
2023-01-20T23:21:30.307Z,99903.69
2023-01-20T23:23:58.019Z,99909.03
2023-01-20T23:26:28.521Z,99915.78
2023-01-20T23:28:57.105Z,99926.09
2023-01-20T23:31:25.632Z,99924.06
2023-01-20T23:33:54.168Z,99921.09
2023-01-20T23:36:24.772Z,99917.97
2023-01-20T23:38:56.560Z,99916.94
2023-01-20T23:41:25.467Z,99910.37
2023-01-20T23:43:53.301Z,99920.47
2023-01-20T23:46:21.259Z,99929.06
2023-01-20T23:48:49.387Z,99932.41
2023-01-20T23:51:17.640Z,99926.09
2023-01-20T23:53:45.365Z,99934.31
2023-01-20T23:56:18.987Z,99933.16
2023-01-20T23:58:47.121Z,99934.16
